Austinburg, Pennsylvania
Current Conditions -  °F | °C
As of 8:15 PM on Monday 22 Dec 2014 (Local Time) from KN38 Reporting Station
Overcast Overcast  
Wind Chill: 23°   Ceiling: 1400
Heat Index: 30°   Visibility: 9mi
Dew Point: 27°   Wind: 7mph
Humidity: 86%   Direction: 170°S
Pressure: 30.1"   Gusts: NA
Location:  41.9659°N, 77.4284°W
Report Text: KN38 230115Z AUTO 17006KT 9SM BKN014 OVC021 M01/M03 A3010 RMK AO2
Loading
Personal Weather Stations






























Interactive Weather Map New forecast layout! Learn more

10-Day Weather Forecast

Advertisements
Track Severe Weather on mobile